Time;durP1;ratioP1;P1;durP2;ratioP2;P2;SDS_P1;SDS_P2;PMS_P1;PMS_P2;Temp;Humidity;BMP_temperature;BMP_pressure;BME280_temperature;BME280_humidity;BME280_pressure;Samples;Min_cycle;Max_cycle;Signal;HPM_P1;HPM_P2
2021/12/10 00:05:22;;;;;;;41.97;39.27;;;;;;;9.29;100.00;99083.27;1985833;71;39557;-76
2021/12/10 00:11:08;;;;;;;41.50;38.83;;;;;;;9.33;100.00;99078.16;1819389;76;86664;-76
2021/12/10 00:16:53;;;;;;;42.60;39.80;;;;;;;9.38;100.00;99088.28;1882817;74;86153;-76
2021/12/10 00:22:42;;;;;;;42.67;39.77;;;;;;;9.38;100.00;99097.98;1907077;73;86554;-76
2021/12/10 00:28:31;;;;;;;45.47;42.27;;;;;;;9.37;100.00;99101.91;1940602;71;39558;-75
2021/12/10 00:34:26;;;;;;;45.80;42.60;;;;;;;9.33;100.00;99104.48;1981154;71;39696;-76
2021/12/10 00:40:14;;;;;;;45.77;42.57;;;;;;;9.32;100.00;99106.20;1839075;76;86437;-78
2021/12/10 00:45:58;;;;;;;45.40;42.37;;;;;;;9.25;100.00;99116.91;1870003;75;85965;-78
2021/12/10 00:51:43;;;;;;;46.13;42.83;;;;;;;9.17;100.00;99119.89;1909504;73;86727;-76
2021/12/10 00:57:28;;;;;;;44.37;41.27;;;;;;;9.13;100.00;99114.73;1945878;71;39475;-75
2021/12/10 01:03:15;;;;;;;46.43;43.10;;;;;;;9.06;100.00;99124.08;1859368;76;86212;-75
2021/12/10 01:09:01;;;;;;;43.00;40.03;;;;;;;9.03;100.00;99120.53;1808887;78;85926;-76
2021/12/10 01:15:02;;;;;;;45.77;42.63;;;;;;;8.98;100.00;99122.90;1844449;76;86907;-75
2021/12/10 01:23:52;;;;;;;45.20;42.10;;;;;;;8.97;100.00;99133.72;1949459;70;86416;-74
2021/12/10 01:26:38;;;;;;;43.83;40.63;;;;;;;8.93;100.00;99152.09;1877822;74;934680;-74
2021/12/10 01:29:01;;;;;;;47.47;43.87;;;;;;;8.97;100.00;99153.66;1893805;73;934844;-75
2021/12/10 01:34:46;;;;;;;43.80;40.67;;;;;;;8.90;100.00;99152.70;1931632;73;86360;-76
2021/12/10 01:40:31;;;;;;;44.00;41.10;;;;;;;8.92;100.00;99165.68;1868253;75;86760;-75
2021/12/10 01:46:24;;;;;;;45.03;42.03;;;;;;;8.90;100.00;99165.76;1795554;78;86188;-76
2021/12/10 01:52:07;;;;;;;44.13;41.03;;;;;;;8.87;100.00;99168.57;1820164;76;86431;-76
2021/12/10 01:57:55;;;;;;;44.80;41.70;;;;;;;8.79;100.00;99180.41;1912980;73;86627;-78
2021/12/10 02:03:42;;;;;;;43.17;40.10;;;;;;;8.84;100.00;99186.38;1910027;73;86962;-76
2021/12/10 02:09:25;;;;;;;42.50;39.50;;;;;;;8.78;100.00;99202.29;1981601;71;39635;-76
2021/12/10 02:15:12;;;;;;;43.23;40.33;;;;;;;8.74;100.00;99208.20;1839744;76;85623;-76
2021/12/10 02:21:15;;;;;;;43.33;40.23;;;;;;;8.76;100.00;99224.51;1889613;74;86224;-77
2021/12/10 02:33:41;;;;;;;45.27;41.97;;;;;;;8.61;100.00;99241.71;1930514;72;86224;-76
2021/12/10 02:39:28;;;;;;;46.40;43.20;;;;;;;8.55;100.00;99242.98;1976155;71;39644;-75
2021/12/10 02:45:16;;;;;;;47.03;43.73;;;;;;;8.53;100.00;99256.29;1831861;76;85768;-77
2021/12/10 02:51:02;;;;;;;47.60;44.20;;;;;;;8.51;100.00;99257.73;1889022;74;85578;-76
2021/12/10 02:56:47;;;;;;;45.90;42.60;;;;;;;8.43;100.00;99252.94;1788816;79;86355;-75
2021/12/10 03:02:31;;;;;;;47.87;44.50;;;;;;;8.42;100.00;99268.72;1922321;73;86839;-75
2021/12/10 03:08:16;;;;;;;47.00;43.70;;;;;;;8.45;100.00;99282.48;1927237;72;86399;-77
2021/12/10 03:14:06;;;;;;;46.77;43.00;;;;;;;8.25;100.00;99251.91;1806675;78;86559;-75
2021/12/10 03:23:05;;;;;;;50.27;46.63;;;;;;;8.36;100.00;99305.91;1876398;74;86075;-77
2021/12/10 03:28:52;;;;;;;48.63;45.20;;;;;;;8.37;100.00;99318.62;1887698;73;86480;-75
2021/12/10 03:34:40;;;;;;;47.30;43.90;;;;;;;8.31;100.00;99310.16;1903628;74;85564;-75
2021/12/10 03:40:25;;;;;;;50.80;47.30;;;;;;;8.26;100.00;99316.34;1982052;71;39619;-77
2021/12/10 03:46:10;;;;;;;49.50;45.93;;;;;;;8.21;100.00;99338.01;1837344;76;86650;-76
2021/12/10 03:51:56;;;;;;;49.97;46.53;;;;;;;8.22;100.00;99350.12;1882745;74;85393;-76
2021/12/10 03:57:40;;;;;;;49.80;46.10;;;;;;;8.21;100.00;99358.16;1925191;73;86612;-76
2021/12/10 04:03:26;;;;;;;45.80;42.53;;;;;;;8.12;100.00;99362.78;1956063;71;39455;-77
2021/12/10 04:09:12;;;;;;;46.13;43.03;;;;;;;8.00;100.00;99367.17;1907988;74;85800;-77
2021/12/10 04:14:57;;;;;;;47.03;43.60;;;;;;;7.94;100.00;99373.34;1886074;74;85567;-78
2021/12/10 04:20:42;;;;;;;46.67;43.57;;;;;;;7.88;100.00;99374.55;1902943;72;86580;-76
2021/12/10 04:26:28;;;;;;;44.53;41.50;;;;;;;7.87;100.00;99373.48;1954301;71;39732;-77
2021/12/10 04:32:14;;;;;;;45.00;41.83;;;;;;;7.88;100.00;99367.63;1872736;74;86862;-75
2021/12/10 04:37:59;;;;;;;44.90;41.70;;;;;;;7.78;100.00;99367.84;1806595;78;86558;-77
2021/12/10 04:43:45;;;;;;;45.97;43.13;;;;;;;7.79;100.00;99360.59;1899319;74;85751;-77
2021/12/10 04:49:29;;;;;;;42.37;39.63;;;;;;;7.75;100.00;99360.13;1973340;71;39538;-76
2021/12/10 04:55:16;;;;;;;45.57;42.70;;;;;;;7.79;100.00;99365.30;1850427;76;86273;-76
2021/12/10 05:01:03;;;;;;;45.63;42.90;;;;;;;7.74;100.00;99366.21;1866791;74;85509;-77
2021/12/10 05:06:47;;;;;;;45.00;42.10;;;;;;;7.68;100.00;99372.14;1910373;73;85290;-75
2021/12/10 05:12:30;;;;;;;45.60;42.47;;;;;;;7.64;100.00;99383.55;1814998;78;86169;-75
2021/12/10 05:18:15;;;;;;;45.90;42.90;;;;;;;7.65;100.00;99379.66;1961893;71;86611;-75
2021/12/10 05:24:01;;;;;;;45.20;42.40;;;;;;;7.53;100.00;99391.16;1801850;78;85761;-75
2021/12/10 05:29:45;;;;;;;46.50;43.40;;;;;;;7.42;100.00;99406.83;1937260;72;86673;-76
2021/12/10 05:35:30;;;;;;;46.00;42.90;;;;;;;7.35;100.00;99414.12;1960504;71;39608;-76
2021/12/10 05:41:15;;;;;;;45.37;42.40;;;;;;;7.22;100.00;99430.05;1952995;72;86694;-76
2021/12/10 05:46:59;;;;;;;48.20;45.10;;;;;;;7.13;100.00;99434.03;1806867;78;86128;-76
2021/12/10 05:52:44;;;;;;;47.10;43.90;;;;;;;7.14;100.00;99452.81;1910817;73;86398;-77
2021/12/10 05:58:28;;;;;;;46.93;44.03;;;;;;;6.99;100.00;99452.44;1931409;71;39675;-77
2021/12/10 06:04:16;;;;;;;47.30;44.23;;;;;;;6.89;100.00;99476.02;1953176;72;86296;-76
2021/12/10 06:09:58;;;;;;;46.30;43.30;;;;;;;6.77;100.00;99481.13;1808042;76;86748;-76
2021/12/10 06:15:43;;;;;;;48.47;45.37;;;;;;;6.72;100.00;99494.42;1907944;72;86551;-75
2021/12/10 06:21:29;;;;;;;48.17;45.00;;;;;;;6.54;100.00;99508.98;1984575;71;39638;-75
2021/12/10 06:27:13;;;;;;;46.30;43.33;;;;;;;6.50;100.00;99516.76;1826154;76;86280;-76
2021/12/10 06:33:00;;;;;;;44.57;41.50;;;;;;;6.48;100.00;99522.55;1885935;74;85535;-75
2021/12/10 06:38:46;;;;;;;47.87;44.80;;;;;;;6.47;100.00;99543.52;1866332;75;86330;-77
2021/12/10 06:44:32;;;;;;;45.87;42.77;;;;;;;6.34;100.00;99547.22;1936092;73;85338;-77
2021/12/10 06:50:20;;;;;;;48.17;45.20;;;;;;;6.34;100.00;99558.25;1893050;74;85737;-77
2021/12/10 06:56:05;;;;;;;44.80;41.67;;;;;;;6.23;100.00;99573.24;1841637;76;86371;-76
2021/12/10 07:01:49;;;;;;;47.97;45.00;;;;;;;6.17;100.00;99592.30;1868212;75;86500;-77
2021/12/10 07:07:34;;;;;;;46.30;43.10;;;;;;;6.10;100.00;99602.02;1913135;73;85645;-76
2021/12/10 07:13:20;;;;;;;46.67;43.70;;;;;;;6.08;100.00;99605.05;1922019;71;39504;-76
2021/12/10 07:19:07;;;;;;;45.77;42.67;;;;;;;6.06;100.00;99608.66;1845626;76;86283;-74
2021/12/10 07:24:52;;;;;;;45.80;42.80;;;;;;;6.13;100.00;99624.86;1870015;75;85309;-75
2021/12/10 07:30:37;;;;;;;44.77;41.97;;;;;;;6.05;100.00;99634.56;1944693;71;85652;-76
2021/12/10 07:36:25;;;;;;;45.70;42.73;;;;;;;6.02;100.00;99632.94;1977122;71;39586;-75
2021/12/10 07:42:11;;;;;;;43.77;40.97;;;;;;;6.00;100.00;99644.78;1850227;76;86463;-76
2021/12/10 07:47:58;;;;;;;44.73;41.90;;;;;;;6.00;100.00;99666.28;1908911;73;86377;-76
2021/12/10 07:53:45;;;;;;;43.90;41.00;;;;;;;6.00;100.00;99675.94;1937511;72;85059;-76
2021/12/10 07:59:29;;;;;;;46.47;43.37;;;;;;;5.87;100.00;99683.44;1948797;73;86727;-75
2021/12/10 08:05:15;;;;;;;43.70;41.00;;;;;;;5.80;100.00;99701.63;1829384;76;86125;-76
2021/12/10 08:10:58;;;;;;;45.60;42.33;;;;;;;5.73;100.00;99709.94;1800666;78;86698;-77
2021/12/10 08:16:43;;;;;;;45.60;42.67;;;;;;;5.72;100.00;99727.02;1919373;73;86562;-78
2021/12/10 08:22:28;;;;;;;45.43;42.33;;;;;;;5.82;100.00;99732.47;1984226;71;39722;-77
2021/12/10 08:28:12;;;;;;;46.67;43.90;;;;;;;5.76;100.00;99742.42;1853833;76;86957;-76
2021/12/10 08:33:58;;;;;;;45.90;42.90;;;;;;;5.73;100.00;99749.34;1887635;74;86529;-77
2021/12/10 08:39:43;;;;;;;45.00;41.90;;;;;;;5.77;100.00;99769.70;1944878;73;86415;-76
2021/12/10 08:45:32;;;;;;;44.93;41.93;;;;;;;5.78;100.00;99776.84;1815289;77;86314;-77
2021/12/10 08:51:19;;;;;;;46.60;43.40;;;;;;;5.81;100.00;99780.44;1974260;70;39446;-74
2021/12/10 08:57:06;;;;;;;45.80;42.90;;;;;;;5.93;100.00;99796.14;1838318;76;86240;-77
2021/12/10 09:02:49;;;;;;;42.23;39.73;;;;;;;5.94;100.00;99813.50;1879869;75;86290;-76
2021/12/10 09:08:34;;;;;;;43.60;40.97;;;;;;;6.04;100.00;99816.75;1843344;76;86239;-75
2021/12/10 09:14:18;;;;;;;44.70;41.90;;;;;;;6.01;100.00;99833.86;1982880;71;39494;-77
2021/12/10 09:20:05;;;;;;;44.83;41.90;;;;;;;6.00;100.00;99844.61;1885198;74;86174;-76
2021/12/10 09:25:50;;;;;;;44.80;42.00;;;;;;;6.01;100.00;99862.25;1874617;75;86446;-79
2021/12/10 09:31:38;;;;;;;42.83;40.33;;;;;;;6.19;100.00;99887.86;1904529;74;86646;-76
2021/12/10 09:37:24;;;;;;;41.80;39.17;;;;;;;6.27;100.00;99889.20;1979162;71;39658;-75
2021/12/10 09:43:12;;;;;;;40.80;38.30;;;;;;;6.34;100.00;99901.59;1826046;76;86180;-76
2021/12/10 09:48:58;;;;;;;41.00;38.23;;;;;;;6.31;100.00;99907.67;1797804;78;85485;-76
2021/12/10 09:54:48;;;;;;;42.23;39.50;;;;;;;6.36;100.00;99910.42;1917302;73;86539;-76
2021/12/10 10:00:36;;;;;;;41.97;39.40;;;;;;;6.44;100.00;99921.97;1929906;73;86504;-76
2021/12/10 10:06:21;;;;;;;42.53;40.03;;;;;;;6.59;100.00;99931.01;1981077;71;39408;-77
2021/12/10 10:15:16;;;;;;;42.77;39.97;;;;;;;6.67;100.00;99943.42;1992530;69;39610;-77
2021/12/10 10:17:47;;;;;;;42.23;39.60;;;;;;;6.66;100.00;99951.42;1926012;73;933313;-77
2021/12/10 10:23:32;;;;;;;41.23;38.63;;;;;;;6.78;100.00;99953.30;1930981;71;86231;-75
2021/12/10 10:29:21;;;;;;;40.73;38.00;;;;;;;6.76;100.00;99961.84;1975952;71;39614;-75
2021/12/10 10:35:13;;;;;;;40.00;37.57;;;;;;;6.91;100.00;99967.05;1862292;75;86812;-76
2021/12/10 10:44:06;;;;;;;38.70;36.40;;;;;;;7.07;100.00;99965.31;1859593;76;85375;-77
2021/12/10 10:46:37;;;;;;;37.87;35.40;;;;;;;7.07;100.00;99972.21;1800151;78;934736;-77
2021/12/10 10:49:08;;;;;;;38.00;35.90;;;;;;;7.12;100.00;99986.55;1804447;76;936779;-76
2021/12/10 10:51:41;;;;;;;39.00;36.73;;;;;;;7.16;100.00;99986.25;1807668;77;936719;-76
2021/12/10 10:57:30;;;;;;;36.17;34.27;;;;;;;7.25;100.00;99983.17;1980142;71;40190;-77
2021/12/10 11:03:20;;;;;;;36.53;34.50;;;;;;;7.31;100.00;99984.81;1895502;74;86252;-76
2021/12/10 11:09:11;;;;;;;37.23;34.83;;;;;;;7.36;100.00;99999.15;1888825;74;85600;-77
2021/12/10 11:15:00;;;;;;;36.70;34.37;;;;;;;7.38;100.00;100019.01;1808873;77;86519;-76
2021/12/10 11:20:47;;;;;;;35.40;33.20;;;;;;;7.48;100.00;100021.17;1835599;76;86469;-76
2021/12/10 11:26:44;;;;;;;34.37;32.07;;;;;;;7.55;100.00;100016.16;1903034;72;85457;-76
2021/12/10 11:32:47;;;;;;;34.00;32.20;;;;;;;7.60;100.00;100034.09;1919782;73;85382;-76
2021/12/10 11:38:35;;;;;;;36.17;34.07;;;;;;;7.74;100.00;100044.75;1923135;73;85794;-76
2021/12/10 11:44:37;;;;;;;33.07;31.20;;;;;;;7.71;100.00;100047.27;1924070;71;39481;-77
2021/12/10 11:50:17;;;;;;;33.40;31.50;;;;;;;7.71;100.00;100037.05;1979668;72;86106;-78
2021/12/10 11:56:18;;;;;;;33.27;31.27;;;;;;;7.75;100.00;100053.87;1809660;78;86091;-75
2021/12/10 12:02:22;;;;;;;31.40;29.80;;;;;;;7.80;100.00;100045.56;1984377;71;39437;-76
2021/12/10 12:08:11;;;;;;;31.77;29.70;;;;;;;7.81;100.00;100049.16;1897752;73;86847;-78
2021/12/10 12:13:57;;;;;;;30.23;28.40;;;;;;;7.86;100.00;100049.95;1869328;75;85392;-75
2021/12/10 12:19:41;;;;;;;30.90;29.10;;;;;;;7.88;100.00;100060.70;1914170;72;85429;-70
2021/12/10 12:25:37;;;;;;;31.63;29.83;;;;;;;7.90;100.00;100059.88;1948920;71;86440;-72
2021/12/10 12:31:26;;;;;;;29.77;28.20;;;;;;;7.94;100.00;100055.42;1979450;71;40323;-72
2021/12/10 12:37:23;;;;;;;27.43;25.93;;;;;;;8.04;100.00;100074.17;1949396;71;39540;-75
2021/12/10 12:43:09;;;;;;;28.47;26.80;;;;;;;8.09;100.00;100075.48;1850152;76;86504;-74
2021/12/10 12:49:01;;;;;;;26.90;25.40;;;;;;;8.09;100.00;100069.96;1881888;73;86403;-69
2021/12/10 12:54:55;;;;;;;26.30;24.77;;;;;;;8.11;100.00;100083.51;1932297;73;86458;-73
2021/12/10 13:00:42;;;;;;;27.43;25.70;;;;;;;8.21;100.00;100092.55;1908853;74;86182;-75
2021/12/10 13:09:41;;;;;;;27.37;25.97;;;;;;;8.22;100.00;100098.91;1894710;75;86086;-79
2021/12/10 13:12:19;;;;;;;26.77;25.02;;;;;;;8.19;100.00;100112.77;1847310;76;935817;-71
2021/12/10 13:18:02;;;;;;;26.90;25.50;;;;;;;8.46;100.00;100117.03;1800743;78;86218;-80
2021/12/10 13:23:48;;;;;;;25.07;23.77;;;;;;;8.31;100.00;100129.59;1886420;73;86460;-74
2021/12/10 13:29:33;;;;;;;25.07;23.53;;;;;;;8.24;100.00;100115.50;1904762;72;86555;-75
2021/12/10 13:35:21;;;;;;;24.67;23.13;;;;;;;8.18;100.00;100104.75;1973605;71;39668;-76
2021/12/10 13:41:11;;;;;;;25.20;23.90;;;;;;;8.42;100.00;100144.46;1838096;75;86831;-75
2021/12/10 13:46:58;;;;;;;24.43;23.13;;;;;;;8.50;100.00;100141.08;1833443;76;85846;-75
2021/12/10 13:53:03;;;;;;;24.40;23.03;;;;;;;8.63;100.00;100154.26;1793773;78;86291;-74
2021/12/10 13:58:56;;;;;;;22.33;21.13;;;;;;;8.63;100.00;100161.73;1898323;74;85452;-75
2021/12/10 14:04:46;;;;;;;22.40;21.27;;;;;;;8.60;100.00;100157.58;1919806;73;85568;-73
2021/12/10 14:10:32;;;;;;;23.80;22.20;;;;;;;8.61;100.00;100168.93;1974529;71;39707;-73
2021/12/10 14:16:19;;;;;;;24.13;22.93;;;;;;;8.57;100.00;100198.30;1979781;71;39728;-75
2021/12/10 14:22:05;;;;;;;24.90;23.70;;;;;;;8.60;100.00;100191.38;1880611;74;85557;-76
2021/12/10 14:27:57;;;;;;;24.50;23.33;;;;;;;8.56;100.00;100212.42;1893183;74;86397;-77
2021/12/10 14:33:46;;;;;;;25.97;24.50;;;;;;;8.58;100.00;100224.05;1938371;72;86199;-76
2021/12/10 14:39:37;;;;;;;25.93;24.50;;;;;;;8.49;100.00;100225.77;1909132;73;86461;-75
2021/12/10 14:45:26;;;;;;;23.80;22.70;;;;;;;8.41;100.00;100228.59;1983841;71;39555;-79
2021/12/10 14:51:23;;;;;;;24.93;23.77;;;;;;;8.41;100.00;100242.42;1977902;71;39619;-77
2021/12/10 14:57:08;;;;;;;21.03;20.07;;;;;;;8.40;100.00;100249.62;1824264;76;85486;-76
2021/12/10 15:03:00;;;;;;;22.90;21.70;;;;;;;8.51;100.00;100268.67;1879811;73;86392;-77
2021/12/10 15:08:52;;;;;;;23.83;22.50;;;;;;;8.55;100.00;100265.59;1895802;73;86365;-78
2021/12/10 15:14:40;;;;;;;23.07;21.97;;;;;;;8.47;100.00;100281.39;1910438;72;85568;-78
2021/12/10 15:20:32;;;;;;;24.50;23.07;;;;;;;8.33;100.00;100295.59;1981814;71;39620;-77
2021/12/10 15:26:16;;;;;;;23.07;22.07;;;;;;;8.21;100.00;100307.52;1984764;71;39872;-75
2021/12/10 15:32:07;;;;;;;24.00;22.43;;;;;;;8.18;100.00;100316.36;1874987;74;85580;-79
2021/12/10 15:37:55;;;;;;;23.10;21.83;;;;;;;8.09;100.00;100330.50;1897058;73;86233;-76
2021/12/10 15:43:46;;;;;;;22.67;21.30;;;;;;;8.14;100.00;100347.92;1905712;72;86524;-78
2021/12/10 15:49:32;;;;;;;23.60;22.20;;;;;;;8.14;100.00;100350.69;1926247;71;86330;-78
2021/12/10 15:55:18;;;;;;;23.83;22.53;;;;;;;8.10;100.00;100373.11;1978570;71;39628;-76
2021/12/10 16:01:06;;;;;;;25.10;23.90;;;;;;;8.14;100.00;100378.90;1885146;74;86429;-78
2021/12/10 16:06:52;;;;;;;24.63;23.53;;;;;;;8.08;100.00;100404.94;1881350;74;86604;-75
2021/12/10 16:12:36;;;;;;;25.93;24.70;;;;;;;8.11;100.00;100420.96;1926810;73;86780;-76
2021/12/10 16:18:26;;;;;;;27.53;25.87;;;;;;;8.10;100.00;100424.83;1940413;71;39558;-76
2021/12/10 16:24:14;;;;;;;24.83;23.63;;;;;;;8.16;100.00;100438.39;1839074;76;86465;-74
2021/12/10 16:26:48;;;;;;;26.77;25.35;;;;;;;8.16;100.00;100447.23;1749327;79;935861;-74
2021/12/10 16:32:36;;;;;;;26.47;24.97;;;;;;;8.16;100.00;100456.37;1918572;72;86370;-75
2021/12/10 16:38:25;;;;;;;29.23;27.57;;;;;;;8.05;100.00;100475.45;1983037;71;39588;-75
2021/12/10 16:44:13;;;;;;;28.30;26.70;;;;;;;8.00;100.00;100478.21;1839635;76;86602;-76
2021/12/10 16:50:00;;;;;;;27.20;25.60;;;;;;;7.93;100.00;100485.13;1799833;78;86430;-74
2021/12/10 16:55:50;;;;;;;27.23;25.60;;;;;;;7.99;100.00;100500.09;1894493;74;86279;-75
2021/12/10 17:01:36;;;;;;;28.57;26.90;;;;;;;7.77;100.00;100511.41;1913496;72;85732;-76
2021/12/10 17:10:32;;;;;;;28.90;27.10;;;;;;;7.65;100.00;100534.89;1974244;69;40533;-77
2021/12/10 17:13:05;;;;;;;30.03;28.43;;;;;;;7.63;100.00;100548.98;1921367;73;934668;-74
2021/12/10 17:15:36;;;;;;;28.37;26.83;;;;;;;7.60;100.00;100553.67;1920953;73;938757;-72
2021/12/10 17:18:09;;;;;;;28.53;26.93;;;;;;;7.50;100.00;100550.04;1845375;74;937964;-73
2021/12/10 17:20:43;;;;;;;29.70;28.00;;;;;;;7.57;100.00;100563.88;1852648;75;938688;-75
2021/12/10 17:23:15;;;;;;;32.33;30.33;;;;;;;7.52;100.00;100564.43;1874135;74;939021;-74
2021/12/10 17:25:48;;;;;;;35.03;33.13;;;;;;;7.39;100.00;100569.92;1889216;74;937908;-74
2021/12/10 17:28:19;;;;;;;31.27;29.48;;;;;;;7.40;100.00;100572.14;1875741;75;938831;-73
2021/12/10 17:30:54;;;;;;;36.73;34.43;;;;;;;7.47;100.00;100571.32;1882326;74;936857;-77
2021/12/10 17:33:29;;;;;;;33.57;31.77;;;;;;;7.37;100.00;100587.85;1875252;74;938652;-73
2021/12/10 17:36:02;;;;;;;42.60;39.27;;;;;;;7.35;100.00;100592.83;1897090;74;936831;-76
2021/12/10 17:38:35;;;;;;;40.70;38.00;;;;;;;7.29;100.00;100593.35;1894874;73;938926;-75
2021/12/10 17:41:09;;;;;;;37.67;35.30;;;;;;;7.26;100.00;100596.12;1880998;73;939227;-72
2021/12/10 17:43:43;;;;;;;37.60;35.10;;;;;;;7.27;100.00;100606.05;1899849;74;938734;-75
2021/12/10 17:46:16;;;;;;;41.47;39.17;;;;;;;7.17;100.00;100611.54;1884755;74;938953;-77
2021/12/10 17:48:49;;;;;;;42.60;40.00;;;;;;;7.03;100.00;100624.70;1898791;73;938005;-76
2021/12/10 17:51:23;;;;;;;42.73;40.30;;;;;;;7.03;100.00;100632.44;1899450;73;938790;-73
2021/12/10 17:53:56;;;;;;;42.10;39.57;;;;;;;6.97;100.00;100639.59;1922105;73;936799;-77
2021/12/10 17:56:27;;;;;;;42.30;39.80;;;;;;;6.97;100.00;100651.48;1905445;73;937759;-76
2021/12/10 17:59:00;;;;;;;42.40;40.20;;;;;;;6.95;100.00;100647.30;1916540;73;936991;-77
2021/12/10 18:07:53;;;;;;;45.53;42.60;;;;;;;6.73;100.00;100664.81;1996543;71;85476;-71
2021/12/10 18:13:43;;;;;;;44.70;42.13;;;;;;;6.88;100.00;100671.56;1904708;74;86344;-77
2021/12/10 18:19:29;;;;;;;46.30;43.70;;;;;;;6.70;100.00;100665.36;1929141;72;85609;-77
2021/12/10 18:25:14;;;;;;;50.17;47.37;;;;;;;6.74;100.00;100684.98;1832309;76;86272;-70
2021/12/10 18:31:02;;;;;;;48.87;45.87;;;;;;;6.66;100.00;100702.02;1799889;78;86609;-76
2021/12/10 18:36:49;;;;;;;49.53;46.73;;;;;;;6.68;100.00;100717.75;1882877;75;86474;-71
2021/12/10 18:42:38;;;;;;;46.27;43.17;;;;;;;6.72;100.00;100724.41;1909508;72;86534;-71
2021/12/10 18:48:28;;;;;;;47.07;44.07;;;;;;;6.63;100.00;100739.81;1962288;71;39631;-77
2021/12/10 18:54:16;;;;;;;45.83;42.67;;;;;;;6.49;100.00;100751.82;1896236;74;86351;-78
2021/12/10 19:00:07;;;;;;;45.93;42.70;;;;;;;6.44;100.00;100760.04;1845168;76;85609;-69
2021/12/10 19:09:11;;;;;;;49.17;45.63;;;;;;;6.32;100.00;100788.33;1826778;76;86797;-69
2021/12/10 19:15:00;;;;;;;51.47;47.93;;;;;;;6.21;100.00;100798.39;1827915;76;86578;-77
2021/12/10 19:20:49;;;;;;;51.73;48.43;;;;;;;6.10;100.00;100812.33;1858713;76;85635;-77
2021/12/10 19:26:38;;;;;;;49.77;46.67;;;;;;;6.04;100.00;100818.31;1932399;73;85394;-77
2021/12/10 19:32:26;;;;;;;50.00;46.73;;;;;;;6.15;100.00;100827.56;1984520;71;76120;-71
2021/12/10 19:38:15;;;;;;;47.40;44.07;;;;;;;6.04;100.00;100841.75;1833089;76;86656;-71
2021/12/10 19:44:07;;;;;;;47.33;44.30;;;;;;;6.07;100.00;100854.20;1838849;76;86771;-71
2021/12/10 19:49:56;;;;;;;48.23;45.00;;;;;;;6.13;100.00;100862.28;1905671;73;86238;-70
2021/12/10 19:55:45;;;;;;;45.47;42.60;;;;;;;6.09;100.00;100879.59;1943089;73;86183;-69
2021/12/10 20:01:34;;;;;;;46.17;42.70;;;;;;;6.08;100.00;100877.91;1918053;73;86093;-76
2021/12/10 20:07:22;;;;;;;46.90;43.60;;;;;;;6.00;100.00;100887.46;1981231;71;39727;-78
2021/12/10 20:13:12;;;;;;;44.30;41.53;;;;;;;6.05;100.00;100897.19;1834923;75;85908;-79
2021/12/10 20:19:01;;;;;;;44.70;41.63;;;;;;;6.14;100.00;100910.00;1799497;78;86105;-79
2021/12/10 20:24:50;;;;;;;45.73;42.70;;;;;;;6.09;100.00;100925.09;1884922;75;86439;-76
2021/12/10 20:27:23;;;;;;;44.10;41.30;;;;;;;6.00;100.00;100928.82;1830735;76;936744;-71
2021/12/10 20:33:12;;;;;;;44.20;41.10;;;;;;;6.01;100.00;100922.22;1840926;76;86183;-69
2021/12/10 20:39:01;;;;;;;45.63;42.63;;;;;;;5.85;100.00;100940.44;1795570;78;86900;-76
2021/12/10 20:44:50;;;;;;;45.40;42.37;;;;;;;5.87;100.00;100943.79;1888953;74;86897;-78
2021/12/10 20:50:42;;;;;;;52.67;49.43;;;;;;;5.66;100.00;100946.44;1915370;74;86551;-78
2021/12/10 20:53:17;;;;;;;49.73;46.23;;;;;;;5.53;100.00;100958.63;1882167;73;936909;-81
2021/12/10 20:59:06;;;;;;;50.03;46.67;;;;;;;5.59;100.00;100961.77;1886530;74;86369;-71
2021/12/10 21:04:56;;;;;;;48.37;45.47;;;;;;;5.63;100.00;100960.72;1906455;74;86626;-70
2021/12/10 21:10:41;;;;;;;46.43;43.47;;;;;;;5.49;100.00;100970.69;1909360;72;86186;-76
2021/12/10 21:16:33;;;;;;;45.20;42.40;;;;;;;5.57;100.00;100979.63;1859724;75;86098;-71
2021/12/10 21:22:22;;;;;;;46.73;43.43;;;;;;;5.42;100.00;100993.98;1931933;71;39470;-71
2021/12/10 21:28:11;;;;;;;48.63;45.33;;;;;;;5.22;100.00;101006.00;1845969;76;86137;-77
2021/12/10 21:34:04;;;;;;;50.53;47.33;;;;;;;5.11;100.00;101011.00;1876558;73;86202;-68
2021/12/10 21:43:09;;;;;;;50.07;46.47;;;;;;;5.16;100.00;101022.11;1854126;76;86705;-80
2021/12/10 21:48:56;;;;;;;47.17;44.13;;;;;;;5.12;100.00;101034.16;1880014;73;86917;-80
2021/12/10 21:54:44;;;;;;;45.70;42.50;;;;;;;5.15;100.00;101039.17;1923322;73;86402;-75
2021/12/10 22:00:33;;;;;;;50.07;46.97;;;;;;;5.06;100.00;101044.77;1918991;74;86209;-79
2021/12/10 22:09:31;;;;;;;48.37;44.97;;;;;;;4.73;100.00;101062.50;1971391;69;39645;-80
2021/12/10 22:15:26;;;;;;;47.53;44.10;;;;;;;4.78;100.00;101066.21;1982309;70;39409;-70
2021/12/10 22:21:18;;;;;;;47.13;43.73;;;;;;;4.79;100.00;101076.11;1889787;74;86022;-77
2021/12/10 22:27:07;;;;;;;46.10;43.03;;;;;;;4.87;100.00;101091.44;1841703;76;86363;-75
2021/12/10 22:32:57;;;;;;;46.07;42.93;;;;;;;5.02;100.00;101106.90;1886265;74;86481;-70
2021/12/10 22:38:56;;;;;;;45.83;42.80;;;;;;;5.05;100.00;101108.63;1913929;72;86875;-73
2021/12/10 22:44:35;;;;;;;45.53;42.63;;;;;;;5.03;100.00;101109.95;1912791;72;86159;-74
2021/12/10 22:50:25;;;;;;;48.80;45.53;;;;;;;5.09;100.00;101122.77;1985833;71;39629;-78
2021/12/10 22:56:14;;;;;;;48.37;45.27;;;;;;;5.02;100.00;101142.69;1845408;76;86321;-70
2021/12/10 23:02:03;;;;;;;48.07;45.00;;;;;;;5.00;100.00;101147.08;1807840;78;86464;-73
2021/12/10 23:07:53;;;;;;;49.70;46.17;;;;;;;4.97;100.00;101153.05;1937699;74;85311;-75
2021/12/10 23:13:39;;;;;;;47.83;44.70;;;;;;;4.94;100.00;101160.95;1917801;74;85477;-70
2021/12/10 23:19:28;;;;;;;48.73;45.73;;;;;;;4.86;100.00;101173.70;1945676;71;40502;-69
2021/12/10 23:21:56;;;;;;;47.83;44.63;;;;;;;4.78;100.00;101184.54;1853923;75;934848;-70
2021/12/10 23:27:46;;;;;;;47.23;44.23;;;;;;;4.76;100.00;101188.59;1944280;73;86034;-69
2021/12/10 23:33:35;;;;;;;50.67;47.33;;;;;;;4.50;100.00;101197.59;1934113;72;86853;-73
2021/12/10 23:42:33;;;;;;;50.13;46.50;;;;;;;4.28;100.00;101210.78;1893965;75;87082;-69
2021/12/10 23:45:09;;;;;;;51.28;47.88;;;;;;;4.21;100.00;101219.64;1849746;75;936547;-69
2021/12/10 23:50:57;;;;;;;50.13;46.73;;;;;;;4.36;100.00;101227.78;1913765;73;85597;-73
2021/12/10 23:56:44;;;;;;;50.30;46.80;;;;;;;4.15;100.00;101244.78;1899234;72;86114;-74
